sensor_id;sensor_type;location;lat;lon;timestamp;P1;durP1;ratioP1;P2;durP2;ratioP2
57810;SDS011;43640;47.550;7.590;2022-07-18T00:01:14;2.78;;;2.22;;
57810;SDS011;43640;47.550;7.590;2022-07-18T00:03:16;2.70;;;2.00;;
57810;SDS011;43640;47.550;7.590;2022-07-18T00:05:18;3.38;;;1.95;;
57810;SDS011;43640;47.550;7.590;2022-07-18T00:07:19;3.85;;;2.17;;
57810;SDS011;43640;47.550;7.590;2022-07-18T00:09:21;3.20;;;2.05;;
57810;SDS011;43640;47.550;7.590;2022-07-18T00:11:24;2.95;;;2.03;;
57810;SDS011;43640;47.550;7.590;2022-07-18T00:13:25;2.22;;;2.03;;
57810;SDS011;43640;47.550;7.590;2022-07-18T00:15:27;2.65;;;2.00;;
57810;SDS011;43640;47.550;7.590;2022-07-18T00:17:28;2.22;;;1.90;;
57810;SDS011;43640;47.550;7.590;2022-07-18T00:19:30;2.22;;;1.90;;
57810;SDS011;43640;47.550;7.590;2022-07-18T00:21:31;2.63;;;1.85;;
57810;SDS011;43640;47.550;7.590;2022-07-18T00:23:33;2.72;;;2.13;;
57810;SDS011;43640;47.550;7.590;2022-07-18T00:25:34;3.15;;;2.33;;
57810;SDS011;43640;47.550;7.590;2022-07-18T00:27:36;3.47;;;2.50;;
57810;SDS011;43640;47.550;7.590;2022-07-18T00:29:37;3.78;;;2.08;;
57810;SDS011;43640;47.550;7.590;2022-07-18T00:31:40;4.25;;;2.30;;
57810;SDS011;43640;47.550;7.590;2022-07-18T00:33:42;3.22;;;1.92;;
57810;SDS011;43640;47.550;7.590;2022-07-18T00:35:43;2.30;;;2.10;;
57810;SDS011;43640;47.550;7.590;2022-07-18T00:37:44;3.35;;;2.28;;
57810;SDS011;43640;47.550;7.590;2022-07-18T00:39:46;2.10;;;1.90;;
57810;SDS011;43640;47.550;7.590;2022-07-18T00:41:47;2.28;;;2.08;;
57810;SDS011;43640;47.550;7.590;2022-07-18T00:43:49;2.10;;;1.90;;
57810;SDS011;43640;47.550;7.590;2022-07-18T00:45:51;2.25;;;1.92;;
57810;SDS011;43640;47.550;7.590;2022-07-18T00:47:54;2.03;;;1.80;;
57810;SDS011;43640;47.550;7.590;2022-07-18T00:49:55;2.95;;;2.08;;
57810;SDS011;43640;47.550;7.590;2022-07-18T00:51:57;3.85;;;1.75;;
57810;SDS011;43640;47.550;7.590;2022-07-18T00:53:58;2.60;;;1.73;;
57810;SDS011;43640;47.550;7.590;2022-07-18T00:56:00;2.67;;;1.80;;
57810;SDS011;43640;47.550;7.590;2022-07-18T00:58:02;3.05;;;2.05;;
57810;SDS011;43640;47.550;7.590;2022-07-18T01:00:04;4.10;;;2.00;;
57810;SDS011;43640;47.550;7.590;2022-07-18T01:02:25;3.92;;;2.00;;
57810;SDS011;43640;47.550;7.590;2022-07-18T01:04:27;2.28;;;1.65;;
57810;SDS011;43640;47.550;7.590;2022-07-18T01:06:28;2.28;;;2.00;;
57810;SDS011;43640;47.550;7.590;2022-07-18T01:08:30;5.32;;;2.17;;
57810;SDS011;43640;47.550;7.590;2022-07-18T01:10:32;4.18;;;1.80;;
57810;SDS011;43640;47.550;7.590;2022-07-18T01:12:33;1.90;;;1.70;;
57810;SDS011;43640;47.550;7.590;2022-07-18T01:14:35;4.00;;;2.10;;
57810;SDS011;43640;47.550;7.590;2022-07-18T01:16:36;3.72;;;2.00;;
57810;SDS011;43640;47.550;7.590;2022-07-18T01:18:43;2.72;;;2.47;;
57810;SDS011;43640;47.550;7.590;2022-07-18T01:20:44;2.88;;;2.42;;
57810;SDS011;43640;47.550;7.590;2022-07-18T01:22:45;4.97;;;2.50;;
57810;SDS011;43640;47.550;7.590;2022-07-18T01:24:47;2.80;;;2.60;;
57810;SDS011;43640;47.550;7.590;2022-07-18T01:26:48;4.70;;;2.97;;
57810;SDS011;43640;47.550;7.590;2022-07-18T01:28:50;6.43;;;2.85;;
57810;SDS011;43640;47.550;7.590;2022-07-18T01:30:51;4.30;;;2.50;;
57810;SDS011;43640;47.550;7.590;2022-07-18T01:32:59;5.47;;;2.58;;
57810;SDS011;43640;47.550;7.590;2022-07-18T01:35:01;3.42;;;1.92;;
57810;SDS011;43640;47.550;7.590;2022-07-18T01:37:04;4.40;;;2.50;;
57810;SDS011;43640;47.550;7.590;2022-07-18T01:39:08;3.17;;;2.17;;
57810;SDS011;43640;47.550;7.590;2022-07-18T01:41:10;2.15;;;1.92;;
57810;SDS011;43640;47.550;7.590;2022-07-18T01:43:12;2.17;;;1.92;;
57810;SDS011;43640;47.550;7.590;2022-07-18T01:45:13;2.80;;;2.00;;
57810;SDS011;43640;47.550;7.590;2022-07-18T01:47:15;3.70;;;2.15;;
57810;SDS011;43640;47.550;7.590;2022-07-18T01:49:17;2.30;;;1.95;;
57810;SDS011;43640;47.550;7.590;2022-07-18T01:51:19;3.30;;;2.25;;
57810;SDS011;43640;47.550;7.590;2022-07-18T01:53:20;2.40;;;2.20;;
57810;SDS011;43640;47.550;7.590;2022-07-18T01:55:22;2.97;;;2.00;;
57810;SDS011;43640;47.550;7.590;2022-07-18T01:57:23;3.03;;;2.45;;
57810;SDS011;43640;47.550;7.590;2022-07-18T01:59:25;2.72;;;1.80;;
57810;SDS011;43640;47.550;7.590;2022-07-18T02:01:26;4.35;;;2.28;;
57810;SDS011;43640;47.550;7.590;2022-07-18T02:03:28;2.70;;;2.22;;
57810;SDS011;43640;47.550;7.590;2022-07-18T02:05:29;2.95;;;2.10;;
57810;SDS011;43640;47.550;7.590;2022-07-18T02:09:32;3.10;;;2.10;;
57810;SDS011;43640;47.550;7.590;2022-07-18T02:11:33;2.97;;;2.15;;
57810;SDS011;43640;47.550;7.590;2022-07-18T02:13:35;2.15;;;2.00;;
57810;SDS011;43640;47.550;7.590;2022-07-18T02:15:37;3.33;;;2.35;;
57810;SDS011;43640;47.550;7.590;2022-07-18T02:17:38;5.88;;;2.50;;
57810;SDS011;43640;47.550;7.590;2022-07-18T02:19:40;2.55;;;2.20;;
57810;SDS011;43640;47.550;7.590;2022-07-18T02:21:41;2.63;;;2.03;;
57810;SDS011;43640;47.550;7.590;2022-07-18T02:23:43;2.70;;;2.30;;
57810;SDS011;43640;47.550;7.590;2022-07-18T02:25:47;3.97;;;2.20;;
57810;SDS011;43640;47.550;7.590;2022-07-18T02:27:48;2.83;;;2.30;;
57810;SDS011;43640;47.550;7.590;2022-07-18T02:29:50;3.65;;;2.65;;
57810;SDS011;43640;47.550;7.590;2022-07-18T02:31:51;3.92;;;2.70;;
57810;SDS011;43640;47.550;7.590;2022-07-18T02:33:53;2.90;;;2.50;;
57810;SDS011;43640;47.550;7.590;2022-07-18T02:35:54;3.10;;;2.80;;
57810;SDS011;43640;47.550;7.590;2022-07-18T02:37:56;4.20;;;2.60;;
57810;SDS011;43640;47.550;7.590;2022-07-18T02:39:57;3.35;;;2.15;;
57810;SDS011;43640;47.550;7.590;2022-07-18T02:41:59;3.15;;;2.30;;
57810;SDS011;43640;47.550;7.590;2022-07-18T02:44:01;4.60;;;2.70;;
57810;SDS011;43640;47.550;7.590;2022-07-18T02:46:02;2.83;;;2.47;;
57810;SDS011;43640;47.550;7.590;2022-07-18T02:48:04;3.53;;;2.63;;
57810;SDS011;43640;47.550;7.590;2022-07-18T02:50:06;4.43;;;2.63;;
57810;SDS011;43640;47.550;7.590;2022-07-18T02:52:07;3.63;;;2.70;;
57810;SDS011;43640;47.550;7.590;2022-07-18T02:54:09;5.78;;;2.88;;
57810;SDS011;43640;47.550;7.590;2022-07-18T02:56:16;3.22;;;2.55;;
57810;SDS011;43640;47.550;7.590;2022-07-18T02:58:18;2.88;;;2.67;;
57810;SDS011;43640;47.550;7.590;2022-07-18T03:00:19;3.50;;;2.60;;
57810;SDS011;43640;47.550;7.590;2022-07-18T03:02:21;3.38;;;2.70;;
57810;SDS011;43640;47.550;7.590;2022-07-18T03:04:22;2.85;;;2.65;;
57810;SDS011;43640;47.550;7.590;2022-07-18T03:06:23;4.65;;;2.65;;
57810;SDS011;43640;47.550;7.590;2022-07-18T03:08:25;2.80;;;2.60;;
57810;SDS011;43640;47.550;7.590;2022-07-18T03:10:26;4.63;;;2.65;;
57810;SDS011;43640;47.550;7.590;2022-07-18T03:12:28;6.75;;;2.50;;
57810;SDS011;43640;47.550;7.590;2022-07-18T03:14:29;2.75;;;2.47;;
57810;SDS011;43640;47.550;7.590;2022-07-18T03:16:30;3.03;;;2.70;;
57810;SDS011;43640;47.550;7.590;2022-07-18T03:18:32;3.33;;;2.83;;
57810;SDS011;43640;47.550;7.590;2022-07-18T03:20:33;3.13;;;2.88;;
57810;SDS011;43640;47.550;7.590;2022-07-18T03:22:35;3.70;;;2.97;;
57810;SDS011;43640;47.550;7.590;2022-07-18T03:24:36;3.97;;;3.40;;
57810;SDS011;43640;47.550;7.590;2022-07-18T03:26:37;4.20;;;2.92;;
57810;SDS011;43640;47.550;7.590;2022-07-18T03:28:39;6.13;;;3.60;;
57810;SDS011;43640;47.550;7.590;2022-07-18T03:30:41;3.92;;;3.10;;
57810;SDS011;43640;47.550;7.590;2022-07-18T03:32:42;4.10;;;3.33;;
57810;SDS011;43640;47.550;7.590;2022-07-18T03:34:43;3.33;;;3.03;;
57810;SDS011;43640;47.550;7.590;2022-07-18T03:36:45;3.80;;;3.40;;
57810;SDS011;43640;47.550;7.590;2022-07-18T03:38:46;4.53;;;3.28;;
57810;SDS011;43640;47.550;7.590;2022-07-18T03:40:48;3.45;;;3.15;;
57810;SDS011;43640;47.550;7.590;2022-07-18T03:42:49;4.28;;;2.53;;
57810;SDS011;43640;47.550;7.590;2022-07-18T03:44:51;4.88;;;2.67;;
57810;SDS011;43640;47.550;7.590;2022-07-18T03:46:52;2.97;;;2.55;;
57810;SDS011;43640;47.550;7.590;2022-07-18T03:48:54;2.97;;;2.67;;
57810;SDS011;43640;47.550;7.590;2022-07-18T03:50:56;2.75;;;2.47;;
57810;SDS011;43640;47.550;7.590;2022-07-18T03:52:57;3.28;;;2.67;;
57810;SDS011;43640;47.550;7.590;2022-07-18T03:54:59;3.83;;;3.28;;
57810;SDS011;43640;47.550;7.590;2022-07-18T03:57:02;3.58;;;3.15;;
57810;SDS011;43640;47.550;7.590;2022-07-18T03:59:04;5.72;;;3.47;;
57810;SDS011;43640;47.550;7.590;2022-07-18T04:01:05;4.90;;;3.40;;
57810;SDS011;43640;47.550;7.590;2022-07-18T04:03:07;5.78;;;4.03;;
57810;SDS011;43640;47.550;7.590;2022-07-18T04:05:09;4.20;;;3.80;;
57810;SDS011;43640;47.550;7.590;2022-07-18T04:07:11;4.40;;;3.70;;
57810;SDS011;43640;47.550;7.590;2022-07-18T04:09:12;5.40;;;3.42;;
57810;SDS011;43640;47.550;7.590;2022-07-18T04:11:13;3.80;;;3.50;;
57810;SDS011;43640;47.550;7.590;2022-07-18T04:13:22;6.38;;;3.70;;
57810;SDS011;43640;47.550;7.590;2022-07-18T04:15:24;4.18;;;3.78;;
57810;SDS011;43640;47.550;7.590;2022-07-18T04:17:26;5.57;;;3.88;;
57810;SDS011;43640;47.550;7.590;2022-07-18T04:19:27;5.07;;;3.80;;
57810;SDS011;43640;47.550;7.590;2022-07-18T04:21:28;4.28;;;3.50;;
57810;SDS011;43640;47.550;7.590;2022-07-18T04:23:30;4.20;;;3.63;;
57810;SDS011;43640;47.550;7.590;2022-07-18T04:25:35;7.28;;;3.70;;
57810;SDS011;43640;47.550;7.590;2022-07-18T04:27:37;4.18;;;3.78;;
57810;SDS011;43640;47.550;7.590;2022-07-18T04:29:38;4.72;;;3.80;;
57810;SDS011;43640;47.550;7.590;2022-07-18T04:31:39;5.10;;;3.60;;
57810;SDS011;43640;47.550;7.590;2022-07-18T04:33:41;6.03;;;3.88;;
57810;SDS011;43640;47.550;7.590;2022-07-18T04:35:43;4.45;;;3.80;;
57810;SDS011;43640;47.550;7.590;2022-07-18T04:37:44;4.05;;;3.40;;
57810;SDS011;43640;47.550;7.590;2022-07-18T04:39:45;4.50;;;3.88;;
57810;SDS011;43640;47.550;7.590;2022-07-18T04:41:47;5.45;;;3.70;;
57810;SDS011;43640;47.550;7.590;2022-07-18T04:43:48;6.07;;;3.80;;
57810;SDS011;43640;47.550;7.590;2022-07-18T04:45:50;4.40;;;3.78;;
57810;SDS011;43640;47.550;7.590;2022-07-18T04:47:51;5.65;;;3.80;;
57810;SDS011;43640;47.550;7.590;2022-07-18T04:49:53;4.03;;;3.55;;
57810;SDS011;43640;47.550;7.590;2022-07-18T04:51:55;5.85;;;4.13;;
57810;SDS011;43640;47.550;7.590;2022-07-18T04:53:56;4.35;;;3.83;;
57810;SDS011;43640;47.550;7.590;2022-07-18T04:55:58;4.60;;;4.20;;
57810;SDS011;43640;47.550;7.590;2022-07-18T04:57:59;4.65;;;3.88;;
57810;SDS011;43640;47.550;7.590;2022-07-18T05:00:02;4.05;;;3.60;;
57810;SDS011;43640;47.550;7.590;2022-07-18T05:02:04;5.63;;;4.40;;
57810;SDS011;43640;47.550;7.590;2022-07-18T05:04:05;6.63;;;4.72;;
57810;SDS011;43640;47.550;7.590;2022-07-18T05:06:07;5.38;;;4.22;;
57810;SDS011;43640;47.550;7.590;2022-07-18T05:08:08;5.43;;;4.45;;
57810;SDS011;43640;47.550;7.590;2022-07-18T05:10:13;5.35;;;4.13;;
57810;SDS011;43640;47.550;7.590;2022-07-18T05:12:14;5.75;;;4.32;;
57810;SDS011;43640;47.550;7.590;2022-07-18T05:14:16;5.38;;;4.40;;
57810;SDS011;43640;47.550;7.590;2022-07-18T05:16:17;4.35;;;3.90;;
57810;SDS011;43640;47.550;7.590;2022-07-18T05:18:18;5.90;;;4.50;;
57810;SDS011;43640;47.550;7.590;2022-07-18T05:20:20;6.30;;;4.18;;
57810;SDS011;43640;47.550;7.590;2022-07-18T05:22:25;5.80;;;4.40;;
57810;SDS011;43640;47.550;7.590;2022-07-18T05:24:26;6.20;;;4.55;;
57810;SDS011;43640;47.550;7.590;2022-07-18T05:26:27;4.97;;;4.45;;
57810;SDS011;43640;47.550;7.590;2022-07-18T05:28:36;6.55;;;4.88;;
57810;SDS011;43640;47.550;7.590;2022-07-18T05:30:37;6.20;;;4.80;;
57810;SDS011;43640;47.550;7.590;2022-07-18T05:32:39;5.05;;;4.47;;
57810;SDS011;43640;47.550;7.590;2022-07-18T05:34:41;9.60;;;4.63;;
57810;SDS011;43640;47.550;7.590;2022-07-18T05:36:42;5.22;;;4.15;;
57810;SDS011;43640;47.550;7.590;2022-07-18T05:38:43;7.20;;;4.38;;
57810;SDS011;43640;47.550;7.590;2022-07-18T05:40:45;4.63;;;3.88;;
57810;SDS011;43640;47.550;7.590;2022-07-18T05:42:46;6.05;;;4.20;;
57810;SDS011;43640;47.550;7.590;2022-07-18T05:44:56;5.80;;;4.38;;
57810;SDS011;43640;47.550;7.590;2022-07-18T05:46:57;5.40;;;3.88;;
57810;SDS011;43640;47.550;7.590;2022-07-18T05:48:59;5.63;;;4.40;;
57810;SDS011;43640;47.550;7.590;2022-07-18T05:51:00;4.65;;;3.88;;
57810;SDS011;43640;47.550;7.590;2022-07-18T05:53:01;4.57;;;4.18;;
57810;SDS011;43640;47.550;7.590;2022-07-18T05:55:03;5.05;;;3.90;;
57810;SDS011;43640;47.550;7.590;2022-07-18T05:57:05;6.45;;;4.57;;
57810;SDS011;43640;47.550;7.590;2022-07-18T05:59:06;5.90;;;4.10;;
57810;SDS011;43640;47.550;7.590;2022-07-18T06:01:07;6.30;;;4.63;;
57810;SDS011;43640;47.550;7.590;2022-07-18T06:03:09;4.18;;;3.83;;
57810;SDS011;43640;47.550;7.590;2022-07-18T06:05:12;5.68;;;3.90;;
57810;SDS011;43640;47.550;7.590;2022-07-18T06:07:23;5.28;;;3.83;;
57810;SDS011;43640;47.550;7.590;2022-07-18T06:09:25;3.97;;;3.13;;
57810;SDS011;43640;47.550;7.590;2022-07-18T06:11:26;4.20;;;3.80;;
57810;SDS011;43640;47.550;7.590;2022-07-18T06:13:27;4.40;;;3.92;;
57810;SDS011;43640;47.550;7.590;2022-07-18T06:15:29;9.32;;;3.70;;
57810;SDS011;43640;47.550;7.590;2022-07-18T06:17:31;4.72;;;3.45;;
57810;SDS011;43640;47.550;7.590;2022-07-18T06:19:32;6.32;;;4.00;;
57810;SDS011;43640;47.550;7.590;2022-07-18T06:21:33;4.53;;;3.58;;
57810;SDS011;43640;47.550;7.590;2022-07-18T06:23:35;4.65;;;3.70;;
57810;SDS011;43640;47.550;7.590;2022-07-18T06:25:37;4.25;;;3.53;;
57810;SDS011;43640;47.550;7.590;2022-07-18T06:27:38;9.75;;;3.80;;
57810;SDS011;43640;47.550;7.590;2022-07-18T06:29:39;4.97;;;3.72;;
57810;SDS011;43640;47.550;7.590;2022-07-18T06:31:41;5.85;;;3.72;;
57810;SDS011;43640;47.550;7.590;2022-07-18T06:33:42;5.63;;;3.47;;
57810;SDS011;43640;47.550;7.590;2022-07-18T06:35:44;4.78;;;3.50;;
57810;SDS011;43640;47.550;7.590;2022-07-18T06:37:47;7.03;;;3.28;;
57810;SDS011;43640;47.550;7.590;2022-07-18T06:39:49;4.68;;;3.70;;
57810;SDS011;43640;47.550;7.590;2022-07-18T06:41:50;5.45;;;3.88;;
57810;SDS011;43640;47.550;7.590;2022-07-18T06:43:51;4.30;;;3.60;;
57810;SDS011;43640;47.550;7.590;2022-07-18T06:45:53;5.05;;;3.45;;
57810;SDS011;43640;47.550;7.590;2022-07-18T06:47:54;8.32;;;4.10;;
57810;SDS011;43640;47.550;7.590;2022-07-18T06:49:56;7.07;;;3.42;;
57810;SDS011;43640;47.550;7.590;2022-07-18T06:51:57;5.25;;;3.30;;
57810;SDS011;43640;47.550;7.590;2022-07-18T06:54:04;5.80;;;3.35;;
57810;SDS011;43640;47.550;7.590;2022-07-18T06:56:06;5.00;;;3.80;;
57810;SDS011;43640;47.550;7.590;2022-07-18T06:58:07;4.43;;;3.70;;
57810;SDS011;43640;47.550;7.590;2022-07-18T07:00:11;6.10;;;3.63;;
57810;SDS011;43640;47.550;7.590;2022-07-18T07:02:14;4.55;;;3.00;;
57810;SDS011;43640;47.550;7.590;2022-07-18T07:04:16;5.53;;;3.90;;
57810;SDS011;43640;47.550;7.590;2022-07-18T07:06:17;4.80;;;3.25;;
57810;SDS011;43640;47.550;7.590;2022-07-18T07:08:18;4.03;;;3.38;;
57810;SDS011;43640;47.550;7.590;2022-07-18T07:10:20;4.00;;;3.45;;
57810;SDS011;43640;47.550;7.590;2022-07-18T07:12:21;6.68;;;3.67;;
57810;SDS011;43640;47.550;7.590;2022-07-18T07:14:23;5.40;;;3.05;;
57810;SDS011;43640;47.550;7.590;2022-07-18T07:16:24;5.20;;;3.20;;
57810;SDS011;43640;47.550;7.590;2022-07-18T07:18:26;8.02;;;3.53;;
57810;SDS011;43640;47.550;7.590;2022-07-18T07:20:27;4.15;;;3.13;;
57810;SDS011;43640;47.550;7.590;2022-07-18T07:22:29;8.20;;;3.70;;
57810;SDS011;43640;47.550;7.590;2022-07-18T07:24:30;7.70;;;3.42;;
57810;SDS011;43640;47.550;7.590;2022-07-18T07:26:32;5.88;;;3.60;;
57810;SDS011;43640;47.550;7.590;2022-07-18T07:28:33;5.88;;;3.90;;
57810;SDS011;43640;47.550;7.590;2022-07-18T07:30:35;5.88;;;3.50;;
57810;SDS011;43640;47.550;7.590;2022-07-18T07:32:36;3.95;;;3.35;;
57810;SDS011;43640;47.550;7.590;2022-07-18T07:34:38;4.03;;;3.40;;
57810;SDS011;43640;47.550;7.590;2022-07-18T07:36:39;5.20;;;3.33;;
57810;SDS011;43640;47.550;7.590;2022-07-18T07:38:40;5.32;;;3.42;;
57810;SDS011;43640;47.550;7.590;2022-07-18T07:40:42;3.85;;;3.13;;
57810;SDS011;43640;47.550;7.590;2022-07-18T07:42:43;4.78;;;3.38;;
57810;SDS011;43640;47.550;7.590;2022-07-18T07:44:44;5.85;;;3.35;;
57810;SDS011;43640;47.550;7.590;2022-07-18T07:46:46;3.58;;;3.25;;
57810;SDS011;43640;47.550;7.590;2022-07-18T07:48:47;4.28;;;3.30;;
57810;SDS011;43640;47.550;7.590;2022-07-18T07:50:49;4.15;;;3.30;;
57810;SDS011;43640;47.550;7.590;2022-07-18T07:52:51;5.05;;;3.38;;
57810;SDS011;43640;47.550;7.590;2022-07-18T07:54:53;6.63;;;3.80;;
57810;SDS011;43640;47.550;7.590;2022-07-18T07:56:54;5.70;;;3.70;;
57810;SDS011;43640;47.550;7.590;2022-07-18T07:58:56;3.67;;;3.33;;
57810;SDS011;43640;47.550;7.590;2022-07-18T08:00:57;3.50;;;3.20;;
57810;SDS011;43640;47.550;7.590;2022-07-18T08:02:59;4.30;;;3.40;;
57810;SDS011;43640;47.550;7.590;2022-07-18T08:05:02;3.45;;;3.15;;
57810;SDS011;43640;47.550;7.590;2022-07-18T08:07:04;4.53;;;3.10;;
57810;SDS011;43640;47.550;7.590;2022-07-18T08:09:05;5.45;;;3.00;;
57810;SDS011;43640;47.550;7.590;2022-07-18T08:11:09;4.18;;;3.30;;
57810;SDS011;43640;47.550;7.590;2022-07-18T08:13:11;5.55;;;3.33;;
57810;SDS011;43640;47.550;7.590;2022-07-18T08:15:13;6.47;;;3.28;;
57810;SDS011;43640;47.550;7.590;2022-07-18T08:17:14;5.38;;;3.33;;
57810;SDS011;43640;47.550;7.590;2022-07-18T08:19:15;4.90;;;3.30;;
57810;SDS011;43640;47.550;7.590;2022-07-18T08:21:17;4.22;;;3.13;;
57810;SDS011;43640;47.550;7.590;2022-07-18T08:23:18;4.95;;;3.28;;
57810;SDS011;43640;47.550;7.590;2022-07-18T08:25:20;5.78;;;3.65;;
57810;SDS011;43640;47.550;7.590;2022-07-18T08:27:22;5.13;;;3.10;;
57810;SDS011;43640;47.550;7.590;2022-07-18T08:29:23;4.95;;;3.20;;
57810;SDS011;43640;47.550;7.590;2022-07-18T08:31:44;5.30;;;3.25;;
57810;SDS011;43640;47.550;7.590;2022-07-18T08:33:46;5.07;;;3.33;;
57810;SDS011;43640;47.550;7.590;2022-07-18T08:35:48;5.13;;;3.53;;
57810;SDS011;43640;47.550;7.590;2022-07-18T08:37:50;7.07;;;3.10;;
57810;SDS011;43640;47.550;7.590;2022-07-18T08:39:51;8.98;;;3.45;;
57810;SDS011;43640;47.550;7.590;2022-07-18T08:41:53;4.75;;;3.25;;
57810;SDS011;43640;47.550;7.590;2022-07-18T08:44:02;5.20;;;3.00;;
57810;SDS011;43640;47.550;7.590;2022-07-18T08:46:04;6.13;;;3.25;;
57810;SDS011;43640;47.550;7.590;2022-07-18T08:48:05;7.82;;;3.20;;
57810;SDS011;43640;47.550;7.590;2022-07-18T08:50:07;3.88;;;3.30;;
57810;SDS011;43640;47.550;7.590;2022-07-18T08:52:09;4.15;;;2.97;;
57810;SDS011;43640;47.550;7.590;2022-07-18T08:54:24;3.95;;;2.97;;
57810;SDS011;43640;47.550;7.590;2022-07-18T08:56:25;6.53;;;3.60;;
57810;SDS011;43640;47.550;7.590;2022-07-18T08:58:27;18.17;;;4.10;;
57810;SDS011;43640;47.550;7.590;2022-07-18T09:00:46;5.40;;;3.20;;
57810;SDS011;43640;47.550;7.590;2022-07-18T09:02:58;5.28;;;3.05;;
57810;SDS011;43640;47.550;7.590;2022-07-18T09:05:03;4.63;;;3.47;;
57810;SDS011;43640;47.550;7.590;2022-07-18T09:07:26;3.78;;;3.38;;
57810;SDS011;43640;47.550;7.590;2022-07-18T09:09:28;6.00;;;2.88;;
57810;SDS011;43640;47.550;7.590;2022-07-18T09:11:30;2.90;;;2.70;;
57810;SDS011;43640;47.550;7.590;2022-07-18T09:13:51;5.97;;;3.00;;
57810;SDS011;43640;47.550;7.590;2022-07-18T09:16:10;5.65;;;3.15;;
57810;SDS011;43640;47.550;7.590;2022-07-18T09:18:12;4.72;;;3.22;;
57810;SDS011;43640;47.550;7.590;2022-07-18T09:20:33;3.53;;;3.00;;
57810;SDS011;43640;47.550;7.590;2022-07-18T09:22:35;6.53;;;3.25;;
57810;SDS011;43640;47.550;7.590;2022-07-18T09:27:23;4.72;;;3.10;;
57810;SDS011;43640;47.550;7.590;2022-07-18T09:29:25;4.63;;;2.95;;
57810;SDS011;43640;47.550;7.590;2022-07-18T09:31:29;4.05;;;3.00;;
57810;SDS011;43640;47.550;7.590;2022-07-18T09:33:31;3.78;;;2.90;;
57810;SDS011;43640;47.550;7.590;2022-07-18T09:35:33;4.75;;;2.92;;
57810;SDS011;43640;47.550;7.590;2022-07-18T09:37:35;3.70;;;3.25;;
57810;SDS011;43640;47.550;7.590;2022-07-18T09:39:37;3.08;;;2.78;;
57810;SDS011;43640;47.550;7.590;2022-07-18T09:41:38;5.10;;;3.35;;
57810;SDS011;43640;47.550;7.590;2022-07-18T09:43:40;4.90;;;3.13;;
57810;SDS011;43640;47.550;7.590;2022-07-18T09:45:42;3.53;;;2.78;;
57810;SDS011;43640;47.550;7.590;2022-07-18T09:47:51;5.85;;;2.70;;
57810;SDS011;43640;47.550;7.590;2022-07-18T09:49:53;3.72;;;2.70;;
57810;SDS011;43640;47.550;7.590;2022-07-18T09:52:05;4.20;;;2.58;;
57810;SDS011;43640;47.550;7.590;2022-07-18T09:54:07;5.40;;;3.00;;
57810;SDS011;43640;47.550;7.590;2022-07-18T09:56:10;5.72;;;3.33;;
57810;SDS011;43640;47.550;7.590;2022-07-18T09:58:11;5.20;;;3.20;;
57810;SDS011;43640;47.550;7.590;2022-07-18T10:00:13;3.90;;;3.40;;
57810;SDS011;43640;47.550;7.590;2022-07-18T10:02:15;3.65;;;3.25;;
57810;SDS011;43640;47.550;7.590;2022-07-18T10:04:16;4.40;;;2.75;;
57810;SDS011;43640;47.550;7.590;2022-07-18T10:06:18;3.67;;;3.05;;
57810;SDS011;43640;47.550;7.590;2022-07-18T10:08:20;3.60;;;2.97;;
57810;SDS011;43640;47.550;7.590;2022-07-18T10:10:22;3.40;;;2.83;;
57810;SDS011;43640;47.550;7.590;2022-07-18T10:12:25;3.63;;;2.70;;
57810;SDS011;43640;47.550;7.590;2022-07-18T10:14:27;3.80;;;2.90;;
57810;SDS011;43640;47.550;7.590;2022-07-18T10:16:29;4.90;;;3.20;;
57810;SDS011;43640;47.550;7.590;2022-07-18T10:18:32;4.35;;;3.30;;
57810;SDS011;43640;47.550;7.590;2022-07-18T10:20:38;5.85;;;3.65;;
57810;SDS011;43640;47.550;7.590;2022-07-18T10:22:40;7.30;;;3.20;;
57810;SDS011;43640;47.550;7.590;2022-07-18T10:24:45;4.65;;;3.05;;
57810;SDS011;43640;47.550;7.590;2022-07-18T10:27:10;4.53;;;3.00;;
57810;SDS011;43640;47.550;7.590;2022-07-18T10:29:08;5.47;;;3.47;;
57810;SDS011;43640;47.550;7.590;2022-07-18T10:31:13;3.95;;;2.85;;
57810;SDS011;43640;47.550;7.590;2022-07-18T10:33:36;4.22;;;2.60;;
57810;SDS011;43640;47.550;7.590;2022-07-18T10:35:58;5.07;;;2.70;;
57810;SDS011;43640;47.550;7.590;2022-07-18T10:40:35;3.65;;;3.00;;
57810;SDS011;43640;47.550;7.590;2022-07-18T10:42:36;3.63;;;3.00;;
57810;SDS011;43640;47.550;7.590;2022-07-18T10:44:38;3.40;;;3.10;;
57810;SDS011;43640;47.550;7.590;2022-07-18T10:47:02;3.83;;;2.80;;
57810;SDS011;43640;47.550;7.590;2022-07-18T10:49:04;4.57;;;3.08;;
57810;SDS011;43640;47.550;7.590;2022-07-18T10:53:07;5.28;;;2.65;;
57810;SDS011;43640;47.550;7.590;2022-07-18T10:55:30;3.50;;;2.60;;
57810;SDS011;43640;47.550;7.590;2022-07-18T10:57:32;3.25;;;2.70;;
57810;SDS011;43640;47.550;7.590;2022-07-18T10:59:34;3.60;;;3.28;;
57810;SDS011;43640;47.550;7.590;2022-07-18T11:01:36;6.28;;;2.97;;
57810;SDS011;43640;47.550;7.590;2022-07-18T11:03:48;3.03;;;2.70;;
57810;SDS011;43640;47.550;7.590;2022-07-18T11:05:50;3.05;;;2.45;;
57810;SDS011;43640;47.550;7.590;2022-07-18T11:10:02;2.85;;;2.38;;
57810;SDS011;43640;47.550;7.590;2022-07-18T11:14:57;3.00;;;2.70;;
57810;SDS011;43640;47.550;7.590;2022-07-18T11:17:03;3.92;;;2.40;;
57810;SDS011;43640;47.550;7.590;2022-07-18T11:23:20;3.42;;;2.33;;
57810;SDS011;43640;47.550;7.590;2022-07-18T11:25:26;3.90;;;2.13;;
57810;SDS011;43640;47.550;7.590;2022-07-18T11:27:48;2.85;;;2.17;;
57810;SDS011;43640;47.550;7.590;2022-07-18T11:29:49;2.30;;;2.10;;
57810;SDS011;43640;47.550;7.590;2022-07-18T11:32:00;2.67;;;2.33;;
57810;SDS011;43640;47.550;7.590;2022-07-18T11:34:04;2.33;;;2.10;;
57810;SDS011;43640;47.550;7.590;2022-07-18T11:36:09;3.33;;;2.03;;
57810;SDS011;43640;47.550;7.590;2022-07-18T11:38:11;3.08;;;2.55;;
57810;SDS011;43640;47.550;7.590;2022-07-18T11:40:13;3.10;;;2.30;;
57810;SDS011;43640;47.550;7.590;2022-07-18T11:42:34;2.40;;;2.10;;
57810;SDS011;43640;47.550;7.590;2022-07-18T11:44:35;2.13;;;1.92;;
57810;SDS011;43640;47.550;7.590;2022-07-18T11:46:36;2.30;;;2.10;;
57810;SDS011;43640;47.550;7.590;2022-07-18T11:48:38;2.78;;;2.17;;
57810;SDS011;43640;47.550;7.590;2022-07-18T11:50:39;3.17;;;2.13;;
57810;SDS011;43640;47.550;7.590;2022-07-18T11:52:42;3.22;;;2.15;;
57810;SDS011;43640;47.550;7.590;2022-07-18T11:54:43;2.38;;;1.90;;
57810;SDS011;43640;47.550;7.590;2022-07-18T11:56:49;2.20;;;2.00;;
57810;SDS011;43640;47.550;7.590;2022-07-18T11:58:50;2.25;;;2.03;;
57810;SDS011;43640;47.550;7.590;2022-07-18T12:00:59;2.85;;;2.00;;
57810;SDS011;43640;47.550;7.590;2022-07-18T12:03:19;2.50;;;1.98;;
57810;SDS011;43640;47.550;7.590;2022-07-18T12:05:29;3.38;;;2.00;;
57810;SDS011;43640;47.550;7.590;2022-07-18T12:07:30;2.40;;;2.05;;
57810;SDS011;43640;47.550;7.590;2022-07-18T12:09:32;4.22;;;2.10;;
57810;SDS011;43640;47.550;7.590;2022-07-18T12:11:34;2.30;;;2.10;;
57810;SDS011;43640;47.550;7.590;2022-07-18T12:15:44;2.42;;;2.20;;
57810;SDS011;43640;47.550;7.590;2022-07-18T12:17:46;3.38;;;1.70;;
57810;SDS011;43640;47.550;7.590;2022-07-18T12:19:48;2.75;;;1.95;;
57810;SDS011;43640;47.550;7.590;2022-07-18T12:23:54;3.42;;;2.05;;
57810;SDS011;43640;47.550;7.590;2022-07-18T12:25:55;3.08;;;2.03;;
57810;SDS011;43640;47.550;7.590;2022-07-18T12:28:01;3.53;;;1.80;;
57810;SDS011;43640;47.550;7.590;2022-07-18T12:30:21;4.25;;;2.20;;
57810;SDS011;43640;47.550;7.590;2022-07-18T12:32:24;3.45;;;2.03;;
57810;SDS011;43640;47.550;7.590;2022-07-18T12:34:25;2.47;;;1.70;;
57810;SDS011;43640;47.550;7.590;2022-07-18T12:36:27;2.28;;;1.80;;
57810;SDS011;43640;47.550;7.590;2022-07-18T12:38:28;3.10;;;1.85;;
57810;SDS011;43640;47.550;7.590;2022-07-18T12:42:51;2.45;;;1.80;;
57810;SDS011;43640;47.550;7.590;2022-07-18T12:45:02;2.28;;;2.03;;
57810;SDS011;43640;47.550;7.590;2022-07-18T12:47:04;3.50;;;2.35;;